sensor_id;sensor_type;location;lat;lon;timestamp;P1;durP1;ratioP1;P2;durP2;ratioP2
75737;SDS011;64356;45.638;13.764;2023-03-01T00:01:29;16.23;;;10.63;;
75737;SDS011;64356;45.638;13.764;2023-03-01T00:03:55;16.60;;;11.43;;
75737;SDS011;64356;45.638;13.764;2023-03-01T00:06:22;14.45;;;10.65;;
75737;SDS011;64356;45.638;13.764;2023-03-01T00:08:49;12.77;;;10.43;;
75737;SDS011;64356;45.638;13.764;2023-03-01T00:13:49;15.82;;;11.23;;
75737;SDS011;64356;45.638;13.764;2023-03-01T00:16:17;16.70;;;11.43;;
75737;SDS011;64356;45.638;13.764;2023-03-01T00:19:06;15.35;;;10.30;;
75737;SDS011;64356;45.638;13.764;2023-03-01T00:21:34;13.48;;;10.80;;
75737;SDS011;64356;45.638;13.764;2023-03-01T00:24:00;14.00;;;10.82;;
75737;SDS011;64356;45.638;13.764;2023-03-01T00:26:27;19.58;;;11.80;;
75737;SDS011;64356;45.638;13.764;2023-03-01T00:28:53;13.68;;;10.50;;
75737;SDS011;64356;45.638;13.764;2023-03-01T00:31:24;14.63;;;11.02;;
75737;SDS011;64356;45.638;13.764;2023-03-01T00:33:58;15.88;;;11.63;;
75737;SDS011;64356;45.638;13.764;2023-03-01T00:36:26;14.27;;;10.95;;
75737;SDS011;64356;45.638;13.764;2023-03-01T00:38:53;14.75;;;11.65;;
75737;SDS011;64356;45.638;13.764;2023-03-01T00:41:20;14.35;;;11.13;;
75737;SDS011;64356;45.638;13.764;2023-03-01T00:43:48;16.10;;;11.60;;
75737;SDS011;64356;45.638;13.764;2023-03-01T00:46:17;18.35;;;11.27;;
75737;SDS011;64356;45.638;13.764;2023-03-01T00:48:44;14.68;;;11.07;;
75737;SDS011;64356;45.638;13.764;2023-03-01T00:51:17;16.00;;;11.30;;
75737;SDS011;64356;45.638;13.764;2023-03-01T00:53:45;13.80;;;10.60;;
75737;SDS011;64356;45.638;13.764;2023-03-01T00:56:13;14.30;;;10.40;;
75737;SDS011;64356;45.638;13.764;2023-03-01T00:58:40;14.30;;;10.60;;
75737;SDS011;64356;45.638;13.764;2023-03-01T01:03:42;13.77;;;10.85;;
75737;SDS011;64356;45.638;13.764;2023-03-01T01:06:15;14.95;;;10.43;;
75737;SDS011;64356;45.638;13.764;2023-03-01T01:08:45;15.10;;;11.27;;
75737;SDS011;64356;45.638;13.764;2023-03-01T01:11:12;15.18;;;11.63;;
75737;SDS011;64356;45.638;13.764;2023-03-01T01:13:38;13.82;;;10.57;;
75737;SDS011;64356;45.638;13.764;2023-03-01T01:16:05;14.55;;;10.48;;
75737;SDS011;64356;45.638;13.764;2023-03-01T01:18:31;12.82;;;10.02;;
75737;SDS011;64356;45.638;13.764;2023-03-01T01:20:57;16.92;;;10.25;;
75737;SDS011;64356;45.638;13.764;2023-03-01T01:23:23;13.18;;;10.48;;
75737;SDS011;64356;45.638;13.764;2023-03-01T01:25:48;16.55;;;10.90;;
75737;SDS011;64356;45.638;13.764;2023-03-01T01:28:14;15.10;;;11.32;;
75737;SDS011;64356;45.638;13.764;2023-03-01T01:30:40;17.10;;;11.30;;
75737;SDS011;64356;45.638;13.764;2023-03-01T01:33:05;14.82;;;11.35;;
75737;SDS011;64356;45.638;13.764;2023-03-01T01:35:31;12.30;;;10.65;;
75737;SDS011;64356;45.638;13.764;2023-03-01T01:37:57;12.80;;;10.70;;
75737;SDS011;64356;45.638;13.764;2023-03-01T01:40:22;13.10;;;9.98;;
75737;SDS011;64356;45.638;13.764;2023-03-01T01:42:48;14.35;;;10.35;;
75737;SDS011;64356;45.638;13.764;2023-03-01T01:48:06;14.18;;;10.30;;
75737;SDS011;64356;45.638;13.764;2023-03-01T01:50:38;15.57;;;11.73;;
75737;SDS011;64356;45.638;13.764;2023-03-01T01:53:23;12.68;;;10.30;;
75737;SDS011;64356;45.638;13.764;2023-03-01T01:55:54;16.27;;;10.95;;
75737;SDS011;64356;45.638;13.764;2023-03-01T01:58:23;15.98;;;11.57;;
75737;SDS011;64356;45.638;13.764;2023-03-01T02:00:52;13.43;;;10.20;;
75737;SDS011;64356;45.638;13.764;2023-03-01T02:03:20;14.73;;;10.73;;
75737;SDS011;64356;45.638;13.764;2023-03-01T02:05:55;13.80;;;11.25;;
75737;SDS011;64356;45.638;13.764;2023-03-01T02:08:23;13.68;;;11.05;;
75737;SDS011;64356;45.638;13.764;2023-03-01T02:10:52;13.20;;;10.77;;
75737;SDS011;64356;45.638;13.764;2023-03-01T02:13:20;16.20;;;11.10;;
75737;SDS011;64356;45.638;13.764;2023-03-01T02:15:47;14.40;;;10.45;;
75737;SDS011;64356;45.638;13.764;2023-03-01T02:18:14;14.45;;;11.13;;
75737;SDS011;64356;45.638;13.764;2023-03-01T02:23:27;14.80;;;10.07;;
75737;SDS011;64356;45.638;13.764;2023-03-01T02:28:55;15.30;;;11.15;;
75737;SDS011;64356;45.638;13.764;2023-03-01T02:31:21;15.38;;;10.88;;
75737;SDS011;64356;45.638;13.764;2023-03-01T02:34:07;17.00;;;11.18;;
75737;SDS011;64356;45.638;13.764;2023-03-01T02:36:43;12.18;;;9.75;;
75737;SDS011;64356;45.638;13.764;2023-03-01T02:39:14;16.77;;;11.63;;
75737;SDS011;64356;45.638;13.764;2023-03-01T02:41:45;14.40;;;10.77;;
75737;SDS011;64356;45.638;13.764;2023-03-01T02:44:15;16.00;;;11.55;;
75737;SDS011;64356;45.638;13.764;2023-03-01T02:46:41;14.07;;;11.13;;
75737;SDS011;64356;45.638;13.764;2023-03-01T02:49:22;14.95;;;10.95;;
75737;SDS011;64356;45.638;13.764;2023-03-01T02:52:08;12.48;;;10.95;;
75737;SDS011;64356;45.638;13.764;2023-03-01T02:57:23;13.75;;;11.05;;
75737;SDS011;64356;45.638;13.764;2023-03-01T02:59:50;12.90;;;10.23;;
75737;SDS011;64356;45.638;13.764;2023-03-01T03:02:27;12.18;;;10.25;;
75737;SDS011;64356;45.638;13.764;2023-03-01T03:05:23;13.18;;;10.80;;
75737;SDS011;64356;45.638;13.764;2023-03-01T03:07:53;13.90;;;10.77;;
75737;SDS011;64356;45.638;13.764;2023-03-01T03:10:29;12.35;;;10.93;;
75737;SDS011;64356;45.638;13.764;2023-03-01T03:12:59;12.65;;;9.80;;
75737;SDS011;64356;45.638;13.764;2023-03-01T03:15:27;16.20;;;10.13;;
75737;SDS011;64356;45.638;13.764;2023-03-01T03:17:54;13.60;;;11.57;;
75737;SDS011;64356;45.638;13.764;2023-03-01T03:20:20;12.75;;;10.38;;
75737;SDS011;64356;45.638;13.764;2023-03-01T03:22:51;14.77;;;10.65;;
75737;SDS011;64356;45.638;13.764;2023-03-01T03:25:19;14.75;;;10.52;;
75737;SDS011;64356;45.638;13.764;2023-03-01T03:27:46;17.98;;;11.45;;
75737;SDS011;64356;45.638;13.764;2023-03-01T03:30:15;13.27;;;10.65;;
75737;SDS011;64356;45.638;13.764;2023-03-01T03:32:42;10.50;;;9.35;;
75737;SDS011;64356;45.638;13.764;2023-03-01T03:35:15;12.13;;;10.13;;
75737;SDS011;64356;45.638;13.764;2023-03-01T03:37:41;11.88;;;9.95;;
75737;SDS011;64356;45.638;13.764;2023-03-01T03:40:26;13.05;;;10.52;;
75737;SDS011;64356;45.638;13.764;2023-03-01T03:42:52;14.95;;;10.48;;
75737;SDS011;64356;45.638;13.764;2023-03-01T03:45:18;13.65;;;10.32;;
75737;SDS011;64356;45.638;13.764;2023-03-01T03:47:44;11.80;;;10.50;;
75737;SDS011;64356;45.638;13.764;2023-03-01T03:50:13;14.60;;;10.57;;
75737;SDS011;64356;45.638;13.764;2023-03-01T03:55:07;11.45;;;9.63;;
75737;SDS011;64356;45.638;13.764;2023-03-01T03:57:37;11.50;;;9.88;;
75737;SDS011;64356;45.638;13.764;2023-03-01T04:00:04;13.27;;;10.73;;
75737;SDS011;64356;45.638;13.764;2023-03-01T04:02:38;12.57;;;9.90;;
75737;SDS011;64356;45.638;13.764;2023-03-01T04:05:07;15.05;;;10.38;;
75737;SDS011;64356;45.638;13.764;2023-03-01T04:07:35;12.02;;;9.85;;
75737;SDS011;64356;45.638;13.764;2023-03-01T04:10:05;12.13;;;10.30;;
75737;SDS011;64356;45.638;13.764;2023-03-01T04:12:33;14.50;;;10.60;;
75737;SDS011;64356;45.638;13.764;2023-03-01T04:15:03;14.52;;;10.48;;
75737;SDS011;64356;45.638;13.764;2023-03-01T04:17:38;11.73;;;9.93;;
75737;SDS011;64356;45.638;13.764;2023-03-01T04:20:05;11.80;;;9.52;;
75737;SDS011;64356;45.638;13.764;2023-03-01T04:22:31;13.25;;;9.50;;
75737;SDS011;64356;45.638;13.764;2023-03-01T04:24:58;12.48;;;10.35;;
75737;SDS011;64356;45.638;13.764;2023-03-01T04:27:31;13.70;;;10.20;;
75737;SDS011;64356;45.638;13.764;2023-03-01T04:29:59;12.43;;;10.23;;
75737;SDS011;64356;45.638;13.764;2023-03-01T04:32:25;14.10;;;10.30;;
75737;SDS011;64356;45.638;13.764;2023-03-01T04:34:51;10.88;;;9.77;;
75737;SDS011;64356;45.638;13.764;2023-03-01T04:37:16;11.25;;;9.23;;
75737;SDS011;64356;45.638;13.764;2023-03-01T04:39:42;10.55;;;8.80;;
75737;SDS011;64356;45.638;13.764;2023-03-01T04:42:12;11.80;;;9.52;;
75737;SDS011;64356;45.638;13.764;2023-03-01T04:44:39;11.60;;;8.88;;
75737;SDS011;64356;45.638;13.764;2023-03-01T04:47:04;15.38;;;9.60;;
75737;SDS011;64356;45.638;13.764;2023-03-01T04:49:30;12.05;;;9.65;;
75737;SDS011;64356;45.638;13.764;2023-03-01T04:51:56;12.38;;;9.77;;
75737;SDS011;64356;45.638;13.764;2023-03-01T04:54:30;12.40;;;9.55;;
75737;SDS011;64356;45.638;13.764;2023-03-01T04:56:56;12.88;;;9.23;;
75737;SDS011;64356;45.638;13.764;2023-03-01T04:59:22;10.93;;;9.63;;
75737;SDS011;64356;45.638;13.764;2023-03-01T05:01:49;14.40;;;9.45;;
75737;SDS011;64356;45.638;13.764;2023-03-01T05:04:15;11.20;;;9.52;;
75737;SDS011;64356;45.638;13.764;2023-03-01T05:06:41;11.63;;;9.30;;
75737;SDS011;64356;45.638;13.764;2023-03-01T05:09:07;13.95;;;9.50;;
75737;SDS011;64356;45.638;13.764;2023-03-01T05:11:32;12.63;;;9.63;;
75737;SDS011;64356;45.638;13.764;2023-03-01T05:14:04;11.88;;;9.50;;
75737;SDS011;64356;45.638;13.764;2023-03-01T05:16:31;11.60;;;8.77;;
75737;SDS011;64356;45.638;13.764;2023-03-01T05:18:57;15.82;;;9.45;;
75737;SDS011;64356;45.638;13.764;2023-03-01T05:21:23;13.85;;;9.63;;
75737;SDS011;64356;45.638;13.764;2023-03-01T05:23:49;13.60;;;9.95;;
75737;SDS011;64356;45.638;13.764;2023-03-01T05:26:16;10.93;;;9.57;;
75737;SDS011;64356;45.638;13.764;2023-03-01T05:28:43;13.45;;;10.13;;
75737;SDS011;64356;45.638;13.764;2023-03-01T05:31:09;10.43;;;8.55;;
75737;SDS011;64356;45.638;13.764;2023-03-01T05:33:39;11.73;;;8.63;;
75737;SDS011;64356;45.638;13.764;2023-03-01T05:36:06;12.00;;;9.53;;
75737;SDS011;64356;45.638;13.764;2023-03-01T05:38:33;11.68;;;9.63;;
75737;SDS011;64356;45.638;13.764;2023-03-01T05:40:59;12.85;;;10.60;;
75737;SDS011;64356;45.638;13.764;2023-03-01T05:43:24;12.80;;;9.75;;
75737;SDS011;64356;45.638;13.764;2023-03-01T05:45:51;12.95;;;9.20;;
75737;SDS011;64356;45.638;13.764;2023-03-01T05:48:16;14.30;;;9.95;;
75737;SDS011;64356;45.638;13.764;2023-03-01T05:50:44;12.05;;;9.77;;
75737;SDS011;64356;45.638;13.764;2023-03-01T05:53:13;12.52;;;9.50;;
75737;SDS011;64356;45.638;13.764;2023-03-01T05:55:44;11.30;;;9.30;;
75737;SDS011;64356;45.638;13.764;2023-03-01T05:58:21;12.73;;;10.13;;
75737;SDS011;64356;45.638;13.764;2023-03-01T06:00:47;11.13;;;9.15;;
75737;SDS011;64356;45.638;13.764;2023-03-01T06:03:14;12.82;;;9.63;;
75737;SDS011;64356;45.638;13.764;2023-03-01T06:05:41;15.43;;;9.60;;
75737;SDS011;64356;45.638;13.764;2023-03-01T06:08:08;10.45;;;8.95;;
75737;SDS011;64356;45.638;13.764;2023-03-01T06:10:35;13.23;;;9.68;;
75737;SDS011;64356;45.638;13.764;2023-03-01T06:13:00;11.35;;;9.35;;
75737;SDS011;64356;45.638;13.764;2023-03-01T06:15:26;12.93;;;9.57;;
75737;SDS011;64356;45.638;13.764;2023-03-01T06:17:53;11.90;;;9.13;;
75737;SDS011;64356;45.638;13.764;2023-03-01T06:20:23;9.57;;;8.57;;
75737;SDS011;64356;45.638;13.764;2023-03-01T06:22:50;12.32;;;9.45;;
75737;SDS011;64356;45.638;13.764;2023-03-01T06:25:18;10.65;;;9.13;;
75737;SDS011;64356;45.638;13.764;2023-03-01T06:27:45;11.35;;;8.73;;
75737;SDS011;64356;45.638;13.764;2023-03-01T06:30:12;11.77;;;9.48;;
75737;SDS011;64356;45.638;13.764;2023-03-01T06:32:40;10.32;;;8.48;;
75737;SDS011;64356;45.638;13.764;2023-03-01T06:35:09;9.77;;;8.70;;
75737;SDS011;64356;45.638;13.764;2023-03-01T06:37:36;13.00;;;8.15;;
75737;SDS011;64356;45.638;13.764;2023-03-01T06:40:03;11.73;;;8.60;;
75737;SDS011;64356;45.638;13.764;2023-03-01T06:42:33;16.02;;;9.70;;
75737;SDS011;64356;45.638;13.764;2023-03-01T06:45:04;17.02;;;9.30;;
75737;SDS011;64356;45.638;13.764;2023-03-01T06:47:31;15.68;;;8.60;;
75737;SDS011;64356;45.638;13.764;2023-03-01T06:50:01;15.43;;;9.13;;
75737;SDS011;64356;45.638;13.764;2023-03-01T06:52:27;19.95;;;8.82;;
75737;SDS011;64356;45.638;13.764;2023-03-01T06:54:54;23.50;;;9.85;;
75737;SDS011;64356;45.638;13.764;2023-03-01T06:57:20;34.83;;;11.27;;
75737;SDS011;64356;45.638;13.764;2023-03-01T06:59:46;35.47;;;10.93;;
75737;SDS011;64356;45.638;13.764;2023-03-01T07:02:13;22.38;;;10.77;;
75737;SDS011;64356;45.638;13.764;2023-03-01T07:04:39;25.02;;;10.52;;
75737;SDS011;64356;45.638;13.764;2023-03-01T07:07:06;30.58;;;11.50;;
75737;SDS011;64356;45.638;13.764;2023-03-01T07:09:31;27.00;;;9.85;;
75737;SDS011;64356;45.638;13.764;2023-03-01T07:11:57;24.83;;;9.40;;
75737;SDS011;64356;45.638;13.764;2023-03-01T07:14:23;24.42;;;9.70;;
75737;SDS011;64356;45.638;13.764;2023-03-01T07:16:50;20.30;;;8.50;;
75737;SDS011;64356;45.638;13.764;2023-03-01T07:19:19;36.92;;;9.82;;
75737;SDS011;64356;45.638;13.764;2023-03-01T07:21:45;24.35;;;9.00;;
75737;SDS011;64356;45.638;13.764;2023-03-01T07:24:11;16.65;;;8.50;;
75737;SDS011;64356;45.638;13.764;2023-03-01T07:26:37;28.85;;;8.68;;
75737;SDS011;64356;45.638;13.764;2023-03-01T07:29:03;17.08;;;9.10;;
75737;SDS011;64356;45.638;13.764;2023-03-01T07:31:31;18.15;;;8.77;;
75737;SDS011;64356;45.638;13.764;2023-03-01T07:33:56;15.05;;;8.63;;
75737;SDS011;64356;45.638;13.764;2023-03-01T07:36:22;18.55;;;8.73;;
75737;SDS011;64356;45.638;13.764;2023-03-01T07:38:48;22.73;;;8.68;;
75737;SDS011;64356;45.638;13.764;2023-03-01T07:41:14;15.55;;;9.13;;
75737;SDS011;64356;45.638;13.764;2023-03-01T07:43:39;19.98;;;8.02;;
75737;SDS011;64356;45.638;13.764;2023-03-01T07:46:05;20.63;;;9.07;;
75737;SDS011;64356;45.638;13.764;2023-03-01T07:48:31;18.85;;;8.68;;
75737;SDS011;64356;45.638;13.764;2023-03-01T07:50:59;17.95;;;8.55;;
75737;SDS011;64356;45.638;13.764;2023-03-01T07:53:29;13.88;;;8.68;;
75737;SDS011;64356;45.638;13.764;2023-03-01T07:56:06;12.93;;;8.65;;
75737;SDS011;64356;45.638;13.764;2023-03-01T07:58:34;18.55;;;9.48;;
75737;SDS011;64356;45.638;13.764;2023-03-01T08:01:02;16.70;;;9.32;;
75737;SDS011;64356;45.638;13.764;2023-03-01T08:03:28;23.55;;;8.68;;
75737;SDS011;64356;45.638;13.764;2023-03-01T08:05:54;22.85;;;10.15;;
75737;SDS011;64356;45.638;13.764;2023-03-01T08:08:20;18.13;;;8.32;;
75737;SDS011;64356;45.638;13.764;2023-03-01T08:10:46;18.95;;;9.32;;
75737;SDS011;64356;45.638;13.764;2023-03-01T08:13:12;32.00;;;10.55;;
75737;SDS011;64356;45.638;13.764;2023-03-01T08:15:37;21.13;;;8.35;;
75737;SDS011;64356;45.638;13.764;2023-03-01T08:18:03;20.40;;;8.93;;
75737;SDS011;64356;45.638;13.764;2023-03-01T08:20:29;20.02;;;8.20;;
75737;SDS011;64356;45.638;13.764;2023-03-01T08:22:54;15.15;;;8.30;;
75737;SDS011;64356;45.638;13.764;2023-03-01T08:25:22;21.52;;;8.10;;
75737;SDS011;64356;45.638;13.764;2023-03-01T08:27:48;22.00;;;9.65;;
75737;SDS011;64356;45.638;13.764;2023-03-01T08:30:13;27.02;;;7.78;;
75737;SDS011;64356;45.638;13.764;2023-03-01T08:32:40;24.75;;;9.40;;
75737;SDS011;64356;45.638;13.764;2023-03-01T08:35:05;18.98;;;8.93;;
75737;SDS011;64356;45.638;13.764;2023-03-01T08:37:31;14.10;;;7.40;;
75737;SDS011;64356;45.638;13.764;2023-03-01T08:39:58;13.38;;;7.57;;
75737;SDS011;64356;45.638;13.764;2023-03-01T08:42:25;21.90;;;8.40;;
75737;SDS011;64356;45.638;13.764;2023-03-01T08:44:51;25.48;;;9.75;;
75737;SDS011;64356;45.638;13.764;2023-03-01T08:47:17;23.25;;;8.27;;
75737;SDS011;64356;45.638;13.764;2023-03-01T08:49:42;22.85;;;7.78;;
75737;SDS011;64356;45.638;13.764;2023-03-01T08:52:08;18.45;;;7.97;;
75737;SDS011;64356;45.638;13.764;2023-03-01T08:54:34;31.88;;;9.25;;
75737;SDS011;64356;45.638;13.764;2023-03-01T08:57:01;31.05;;;8.77;;
75737;SDS011;64356;45.638;13.764;2023-03-01T08:59:27;27.65;;;9.02;;
75737;SDS011;64356;45.638;13.764;2023-03-01T09:01:55;28.35;;;9.35;;
75737;SDS011;64356;45.638;13.764;2023-03-01T09:04:21;27.33;;;8.90;;
75737;SDS011;64356;45.638;13.764;2023-03-01T09:06:47;44.97;;;9.50;;
75737;SDS011;64356;45.638;13.764;2023-03-01T09:09:14;34.97;;;9.95;;
75737;SDS011;64356;45.638;13.764;2023-03-01T09:11:42;48.70;;;10.45;;
75737;SDS011;64356;45.638;13.764;2023-03-01T09:14:09;28.83;;;9.32;;
75737;SDS011;64356;45.638;13.764;2023-03-01T09:16:34;24.77;;;9.10;;
75737;SDS011;64356;45.638;13.764;2023-03-01T09:19:01;29.50;;;8.48;;
75737;SDS011;64356;45.638;13.764;2023-03-01T09:21:28;32.00;;;8.40;;
75737;SDS011;64356;45.638;13.764;2023-03-01T09:23:55;26.38;;;9.50;;
75737;SDS011;64356;45.638;13.764;2023-03-01T09:26:22;26.77;;;8.65;;
75737;SDS011;64356;45.638;13.764;2023-03-01T09:28:50;25.88;;;8.50;;
75737;SDS011;64356;45.638;13.764;2023-03-01T09:31:18;20.42;;;7.82;;
75737;SDS011;64356;45.638;13.764;2023-03-01T09:33:46;26.60;;;8.23;;
75737;SDS011;64356;45.638;13.764;2023-03-01T09:36:14;29.15;;;8.48;;
75737;SDS011;64356;45.638;13.764;2023-03-01T09:38:44;28.55;;;8.48;;
75737;SDS011;64356;45.638;13.764;2023-03-01T09:43:46;38.83;;;8.93;;
75737;SDS011;64356;45.638;13.764;2023-03-01T09:46:19;37.83;;;9.45;;
75737;SDS011;64356;45.638;13.764;2023-03-01T09:49:01;20.58;;;7.80;;
75737;SDS011;64356;45.638;13.764;2023-03-01T09:51:36;31.73;;;7.90;;
75737;SDS011;64356;45.638;13.764;2023-03-01T09:54:02;32.40;;;7.53;;
75737;SDS011;64356;45.638;13.764;2023-03-01T09:56:32;24.65;;;7.95;;
75737;SDS011;64356;45.638;13.764;2023-03-01T09:59:27;31.50;;;8.55;;
75737;SDS011;64356;45.638;13.764;2023-03-01T10:10:28;29.40;;;8.65;;
75737;SDS011;64356;45.638;13.764;2023-03-01T10:12:58;31.40;;;7.78;;
75737;SDS011;64356;45.638;13.764;2023-03-01T10:15:35;30.77;;;8.60;;
75737;SDS011;64356;45.638;13.764;2023-03-01T10:18:12;46.22;;;7.05;;
75737;SDS011;64356;45.638;13.764;2023-03-01T10:23:29;36.70;;;9.68;;
75737;SDS011;64356;45.638;13.764;2023-03-01T10:26:12;21.83;;;8.15;;
75737;SDS011;64356;45.638;13.764;2023-03-01T10:34:20;24.83;;;8.75;;
75737;SDS011;64356;45.638;13.764;2023-03-01T10:36:49;19.67;;;7.50;;
75737;SDS011;64356;45.638;13.764;2023-03-01T10:39:20;21.10;;;7.88;;
75737;SDS011;64356;45.638;13.764;2023-03-01T10:42:01;21.92;;;7.35;;
75737;SDS011;64356;45.638;13.764;2023-03-01T10:47:13;34.58;;;7.45;;
75737;SDS011;64356;45.638;13.764;2023-03-01T10:52:31;16.05;;;6.85;;
75737;SDS011;64356;45.638;13.764;2023-03-01T10:55:21;29.23;;;7.95;;
75737;SDS011;64356;45.638;13.764;2023-03-01T10:58:05;21.75;;;7.00;;
75737;SDS011;64356;45.638;13.764;2023-03-01T11:00:46;39.25;;;7.97;;
75737;SDS011;64356;45.638;13.764;2023-03-01T11:03:13;28.00;;;7.33;;
75737;SDS011;64356;45.638;13.764;2023-03-01T11:13:52;31.42;;;6.75;;
75737;SDS011;64356;45.638;13.764;2023-03-01T11:16:26;32.35;;;7.30;;
75737;SDS011;64356;45.638;13.764;2023-03-01T11:18:58;21.92;;;7.05;;
75737;SDS011;64356;45.638;13.764;2023-03-01T11:21:30;28.98;;;7.63;;
75737;SDS011;64356;45.638;13.764;2023-03-01T11:24:00;27.73;;;6.95;;
75737;SDS011;64356;45.638;13.764;2023-03-01T11:26:28;20.77;;;6.68;;
75737;SDS011;64356;45.638;13.764;2023-03-01T11:29:00;18.38;;;6.43;;
75737;SDS011;64356;45.638;13.764;2023-03-01T11:31:31;22.50;;;6.32;;
75737;SDS011;64356;45.638;13.764;2023-03-01T11:36:44;29.20;;;6.35;;
75737;SDS011;64356;45.638;13.764;2023-03-01T11:39:22;29.30;;;7.28;;
75737;SDS011;64356;45.638;13.764;2023-03-01T11:42:11;22.63;;;6.20;;
75737;SDS011;64356;45.638;13.764;2023-03-01T11:44:59;20.40;;;6.53;;
75737;SDS011;64356;45.638;13.764;2023-03-01T11:50:53;31.55;;;8.23;;
75737;SDS011;64356;45.638;13.764;2023-03-01T11:53:22;30.85;;;6.30;;
75737;SDS011;64356;45.638;13.764;2023-03-01T11:56:16;33.92;;;7.28;;
75737;SDS011;64356;45.638;13.764;2023-03-01T11:59:44;38.78;;;7.38;;
75737;SDS011;64356;45.638;13.764;2023-03-01T12:12:47;21.52;;;5.90;;
75737;SDS011;64356;45.638;13.764;2023-03-01T12:15:35;22.40;;;6.30;;
75737;SDS011;64356;45.638;13.764;2023-03-01T12:18:27;24.83;;;6.57;;
75737;SDS011;64356;45.638;13.764;2023-03-01T12:44:30;29.60;;;6.82;;
75737;SDS011;64356;45.638;13.764;2023-03-01T12:50:03;37.15;;;7.40;;
75737;SDS011;64356;45.638;13.764;2023-03-01T12:55:34;24.60;;;4.88;;
75737;SDS011;64356;45.638;13.764;2023-03-01T13:06:19;17.77;;;4.25;;
75737;SDS011;64356;45.638;13.764;2023-03-01T13:11:20;13.30;;;3.47;;
75737;SDS011;64356;45.638;13.764;2023-03-01T13:13:47;15.35;;;3.58;;
75737;SDS011;64356;45.638;13.764;2023-03-01T13:16:47;17.05;;;3.53;;
75737;SDS011;64356;45.638;13.764;2023-03-01T13:19:14;14.18;;;3.00;;
75737;SDS011;64356;45.638;13.764;2023-03-01T13:21:49;14.05;;;3.47;;
75737;SDS011;64356;45.638;13.764;2023-03-01T13:27:42;5.78;;;2.80;;
75737;SDS011;64356;45.638;13.764;2023-03-01T13:29:46;4.78;;;2.95;;
75737;SDS011;64356;45.638;13.764;2023-03-01T13:32:29;6.40;;;2.90;;
75737;SDS011;64356;45.638;13.764;2023-03-01T13:35:44;4.00;;;2.50;;
75737;SDS011;64356;45.638;13.764;2023-03-01T13:37:45;12.65;;;3.50;;
75737;SDS011;64356;45.638;13.764;2023-03-01T13:42:49;6.85;;;2.92;;
75737;SDS011;64356;45.638;13.764;2023-03-01T13:45:24;11.95;;;2.80;;
75737;SDS011;64356;45.638;13.764;2023-03-01T13:48:03;3.75;;;2.55;;
75737;SDS011;64356;45.638;13.764;2023-03-01T13:50:49;12.38;;;2.80;;
75737;SDS011;64356;45.638;13.764;2023-03-01T13:53:18;12.15;;;2.33;;
75737;SDS011;64356;45.638;13.764;2023-03-01T13:58:44;16.50;;;3.65;;
75737;SDS011;64356;45.638;13.764;2023-03-01T14:01:32;5.75;;;2.70;;
75737;SDS011;64356;45.638;13.764;2023-03-01T14:04:00;4.47;;;2.25;;
75737;SDS011;64356;45.638;13.764;2023-03-01T14:06:27;10.10;;;2.83;;
75737;SDS011;64356;45.638;13.764;2023-03-01T14:09:05;5.88;;;2.67;;
75737;SDS011;64356;45.638;13.764;2023-03-01T14:19:44;18.42;;;2.80;;
75737;SDS011;64356;45.638;13.764;2023-03-01T14:22:25;21.48;;;3.50;;
75737;SDS011;64356;45.638;13.764;2023-03-01T14:25:00;11.13;;;3.10;;
75737;SDS011;64356;45.638;13.764;2023-03-01T14:27:30;17.50;;;3.08;;
75737;SDS011;64356;45.638;13.764;2023-03-01T14:30:02;6.60;;;2.92;;
75737;SDS011;64356;45.638;13.764;2023-03-01T14:32:35;7.18;;;2.50;;
75737;SDS011;64356;45.638;13.764;2023-03-01T14:35:00;6.88;;;2.97;;
75737;SDS011;64356;45.638;13.764;2023-03-01T14:37:27;24.60;;;3.08;;
75737;SDS011;64356;45.638;13.764;2023-03-01T14:39:56;13.02;;;3.08;;
75737;SDS011;64356;45.638;13.764;2023-03-01T14:42:26;13.32;;;2.80;;
75737;SDS011;64356;45.638;13.764;2023-03-01T14:44:59;11.23;;;3.17;;
75737;SDS011;64356;45.638;13.764;2023-03-01T14:47:31;8.63;;;3.00;;
75737;SDS011;64356;45.638;13.764;2023-03-01T14:50:03;15.25;;;3.92;;
75737;SDS011;64356;45.638;13.764;2023-03-01T14:52:35;14.60;;;3.40;;
75737;SDS011;64356;45.638;13.764;2023-03-01T14:55:07;11.82;;;3.55;;
75737;SDS011;64356;45.638;13.764;2023-03-01T14:57:49;10.18;;;3.08;;
75737;SDS011;64356;45.638;13.764;2023-03-01T15:00:26;10.45;;;3.00;;
75737;SDS011;64356;45.638;13.764;2023-03-01T15:02:53;11.70;;;3.13;;
75737;SDS011;64356;45.638;13.764;2023-03-01T15:05:31;10.13;;;2.97;;
75737;SDS011;64356;45.638;13.764;2023-03-01T15:08:00;9.75;;;3.00;;
75737;SDS011;64356;45.638;13.764;2023-03-01T15:10:32;9.95;;;2.83;;
75737;SDS011;64356;45.638;13.764;2023-03-01T15:13:12;18.58;;;3.78;;
75737;SDS011;64356;45.638;13.764;2023-03-01T15:15:45;8.75;;;2.97;;
75737;SDS011;64356;45.638;13.764;2023-03-01T15:20:40;7.65;;;2.95;;
75737;SDS011;64356;45.638;13.764;2023-03-01T15:23:06;9.93;;;3.47;;
75737;SDS011;64356;45.638;13.764;2023-03-01T15:26:01;7.97;;;2.88;;
75737;SDS011;64356;45.638;13.764;2023-03-01T15:28:32;10.77;;;2.92;;
75737;SDS011;64356;45.638;13.764;2023-03-01T15:33:41;5.18;;;3.13;;
75737;SDS011;64356;45.638;13.764;2023-03-01T15:39:05;17.95;;;3.63;;
75737;SDS011;64356;45.638;13.764;2023-03-01T15:41:55;3.83;;;2.72;;
75737;SDS011;64356;45.638;13.764;2023-03-01T15:44:30;10.80;;;3.25;;
75737;SDS011;64356;45.638;13.764;2023-03-01T15:46:58;17.02;;;3.13;;
75737;SDS011;64356;45.638;13.764;2023-03-01T15:49:40;8.30;;;3.38;;
75737;SDS011;64356;45.638;13.764;2023-03-01T15:52:12;9.38;;;3.25;;
75737;SDS011;64356;45.638;13.764;2023-03-01T15:54:44;5.00;;;3.08;;
75737;SDS011;64356;45.638;13.764;2023-03-01T15:57:13;14.45;;;3.45;;
75737;SDS011;64356;45.638;13.764;2023-03-01T15:59:40;7.35;;;3.20;;
75737;SDS011;64356;45.638;13.764;2023-03-01T16:02:10;20.02;;;3.25;;
75737;SDS011;64356;45.638;13.764;2023-03-01T16:04:37;8.32;;;2.88;;
75737;SDS011;64356;45.638;13.764;2023-03-01T16:07:03;17.17;;;3.13;;
75737;SDS011;64356;45.638;13.764;2023-03-01T16:09:29;14.00;;;3.20;;
75737;SDS011;64356;45.638;13.764;2023-03-01T16:11:55;8.95;;;3.10;;
75737;SDS011;64356;45.638;13.764;2023-03-01T16:14:21;14.98;;;3.70;;
75737;SDS011;64356;45.638;13.764;2023-03-01T16:16:47;11.52;;;2.92;;
75737;SDS011;64356;45.638;13.764;2023-03-01T16:19:13;5.70;;;3.08;;
75737;SDS011;64356;45.638;13.764;2023-03-01T16:21:40;4.80;;;2.80;;
75737;SDS011;64356;45.638;13.764;2023-03-01T16:24:07;8.75;;;2.78;;
75737;SDS011;64356;45.638;13.764;2023-03-01T16:26:33;7.80;;;3.08;;
75737;SDS011;64356;45.638;13.764;2023-03-01T16:29:01;9.00;;;3.03;;
75737;SDS011;64356;45.638;13.764;2023-03-01T16:31:26;10.73;;;3.15;;
75737;SDS011;64356;45.638;13.764;2023-03-01T16:33:54;5.05;;;3.17;;
75737;SDS011;64356;45.638;13.764;2023-03-01T16:36:21;12.93;;;3.28;;
75737;SDS011;64356;45.638;13.764;2023-03-01T16:38:49;13.85;;;3.25;;
75737;SDS011;64356;45.638;13.764;2023-03-01T16:41:17;11.30;;;3.70;;
75737;SDS011;64356;45.638;13.764;2023-03-01T16:43:45;17.25;;;4.38;;
75737;SDS011;64356;45.638;13.764;2023-03-01T16:46:15;6.28;;;3.17;;
75737;SDS011;64356;45.638;13.764;2023-03-01T16:48:42;10.88;;;3.05;;